sensor_id;sensor_type;location;lat;lon;timestamp;P1;durP1;ratioP1;P2;durP2;ratioP2
12359;SDS011;6244;51.460;7.090;2023-05-19T00:01:48;9.65;;;5.22;;
12359;SDS011;6244;51.460;7.090;2023-05-19T00:06:46;9.73;;;5.25;;
12359;SDS011;6244;51.460;7.090;2023-05-19T00:11:46;10.23;;;5.22;;
12359;SDS011;6244;51.460;7.090;2023-05-19T00:16:43;8.50;;;4.65;;
12359;SDS011;6244;51.460;7.090;2023-05-19T00:21:41;8.77;;;5.28;;
12359;SDS011;6244;51.460;7.090;2023-05-19T00:26:38;8.23;;;4.72;;
12359;SDS011;6244;51.460;7.090;2023-05-19T00:31:34;10.75;;;5.30;;
12359;SDS011;6244;51.460;7.090;2023-05-19T00:36:31;8.35;;;5.47;;
12359;SDS011;6244;51.460;7.090;2023-05-19T00:41:29;9.38;;;5.45;;
12359;SDS011;6244;51.460;7.090;2023-05-19T00:46:25;8.00;;;4.93;;
12359;SDS011;6244;51.460;7.090;2023-05-19T00:51:22;7.47;;;5.10;;
12359;SDS011;6244;51.460;7.090;2023-05-19T00:56:21;8.13;;;4.88;;
12359;SDS011;6244;51.460;7.090;2023-05-19T01:01:19;10.27;;;5.32;;
12359;SDS011;6244;51.460;7.090;2023-05-19T01:06:16;9.45;;;5.53;;
12359;SDS011;6244;51.460;7.090;2023-05-19T01:11:14;10.38;;;5.70;;
12359;SDS011;6244;51.460;7.090;2023-05-19T01:16:13;9.27;;;5.03;;
12359;SDS011;6244;51.460;7.090;2023-05-19T01:21:25;10.55;;;5.80;;
12359;SDS011;6244;51.460;7.090;2023-05-19T01:31:52;10.75;;;6.30;;
12359;SDS011;6244;51.460;7.090;2023-05-19T01:36:52;13.43;;;6.68;;
12359;SDS011;6244;51.460;7.090;2023-05-19T01:41:50;10.43;;;5.00;;
12359;SDS011;6244;51.460;7.090;2023-05-19T01:46:48;9.43;;;5.15;;
12359;SDS011;6244;51.460;7.090;2023-05-19T01:51:47;6.97;;;5.40;;
12359;SDS011;6244;51.460;7.090;2023-05-19T01:56:46;6.88;;;5.20;;
12359;SDS011;6244;51.460;7.090;2023-05-19T02:01:49;7.68;;;5.22;;
12359;SDS011;6244;51.460;7.090;2023-05-19T02:06:52;8.98;;;5.07;;
12359;SDS011;6244;51.460;7.090;2023-05-19T02:11:58;9.95;;;5.80;;
12359;SDS011;6244;51.460;7.090;2023-05-19T02:16:58;12.87;;;5.70;;
12359;SDS011;6244;51.460;7.090;2023-05-19T02:21:57;9.68;;;6.60;;
12359;SDS011;6244;51.460;7.090;2023-05-19T02:26:54;8.68;;;5.55;;
12359;SDS011;6244;51.460;7.090;2023-05-19T02:31:51;8.50;;;5.43;;
12359;SDS011;6244;51.460;7.090;2023-05-19T02:36:47;7.63;;;5.57;;
12359;SDS011;6244;51.460;7.090;2023-05-19T02:41:46;6.68;;;5.22;;
12359;SDS011;6244;51.460;7.090;2023-05-19T02:46:42;9.93;;;6.00;;
12359;SDS011;6244;51.460;7.090;2023-05-19T02:51:38;8.73;;;5.47;;
12359;SDS011;6244;51.460;7.090;2023-05-19T02:56:35;12.57;;;5.88;;
12359;SDS011;6244;51.460;7.090;2023-05-19T03:01:33;13.82;;;5.07;;
12359;SDS011;6244;51.460;7.090;2023-05-19T03:06:31;8.38;;;5.70;;
12359;SDS011;6244;51.460;7.090;2023-05-19T03:11:28;10.82;;;5.93;;
12359;SDS011;6244;51.460;7.090;2023-05-19T03:16:24;11.05;;;6.15;;
12359;SDS011;6244;51.460;7.090;2023-05-19T03:21:23;10.60;;;6.07;;
12359;SDS011;6244;51.460;7.090;2023-05-19T03:26:20;8.43;;;5.90;;
12359;SDS011;6244;51.460;7.090;2023-05-19T03:31:17;9.98;;;6.38;;
12359;SDS011;6244;51.460;7.090;2023-05-19T03:36:13;11.65;;;6.30;;
12359;SDS011;6244;51.460;7.090;2023-05-19T03:41:11;12.00;;;6.88;;
12359;SDS011;6244;51.460;7.090;2023-05-19T03:46:08;12.63;;;6.78;;
12359;SDS011;6244;51.460;7.090;2023-05-19T03:51:04;16.52;;;6.53;;
12359;SDS011;6244;51.460;7.090;2023-05-19T03:56:01;11.02;;;6.80;;
12359;SDS011;6244;51.460;7.090;2023-05-19T04:00:59;9.63;;;6.22;;
12359;SDS011;6244;51.460;7.090;2023-05-19T04:05:55;10.95;;;6.18;;
12359;SDS011;6244;51.460;7.090;2023-05-19T04:10:52;11.95;;;5.70;;
12359;SDS011;6244;51.460;7.090;2023-05-19T04:15:48;11.75;;;6.90;;
12359;SDS011;6244;51.460;7.090;2023-05-19T04:20:46;14.15;;;6.78;;
12359;SDS011;6244;51.460;7.090;2023-05-19T04:25:43;10.40;;;6.50;;
12359;SDS011;6244;51.460;7.090;2023-05-19T04:30:42;11.75;;;6.57;;
12359;SDS011;6244;51.460;7.090;2023-05-19T04:35:40;11.40;;;7.65;;
12359;SDS011;6244;51.460;7.090;2023-05-19T04:40:39;13.48;;;7.22;;
12359;SDS011;6244;51.460;7.090;2023-05-19T04:45:36;9.98;;;6.65;;
12359;SDS011;6244;51.460;7.090;2023-05-19T04:50:36;12.30;;;6.65;;
12359;SDS011;6244;51.460;7.090;2023-05-19T04:55:44;13.50;;;7.68;;
12359;SDS011;6244;51.460;7.090;2023-05-19T05:00:40;10.98;;;7.40;;
12359;SDS011;6244;51.460;7.090;2023-05-19T05:05:37;11.90;;;6.85;;
12359;SDS011;6244;51.460;7.090;2023-05-19T05:10:33;11.98;;;6.90;;
12359;SDS011;6244;51.460;7.090;2023-05-19T05:15:31;11.35;;;7.18;;
12359;SDS011;6244;51.460;7.090;2023-05-19T05:20:29;9.65;;;6.10;;
12359;SDS011;6244;51.460;7.090;2023-05-19T05:25:27;15.00;;;6.80;;
12359;SDS011;6244;51.460;7.090;2023-05-19T05:30:24;11.27;;;6.93;;
12359;SDS011;6244;51.460;7.090;2023-05-19T05:35:22;15.73;;;7.82;;
12359;SDS011;6244;51.460;7.090;2023-05-19T05:40:19;13.70;;;7.20;;
12359;SDS011;6244;51.460;7.090;2023-05-19T05:45:16;11.52;;;5.90;;
12359;SDS011;6244;51.460;7.090;2023-05-19T05:50:12;10.65;;;6.07;;
12359;SDS011;6244;51.460;7.090;2023-05-19T05:55:12;12.07;;;6.25;;
12359;SDS011;6244;51.460;7.090;2023-05-19T06:00:10;7.78;;;5.88;;
12359;SDS011;6244;51.460;7.090;2023-05-19T06:05:09;10.20;;;6.25;;
12359;SDS011;6244;51.460;7.090;2023-05-19T06:10:08;12.38;;;6.45;;
12359;SDS011;6244;51.460;7.090;2023-05-19T06:15:06;10.27;;;6.47;;
12359;SDS011;6244;51.460;7.090;2023-05-19T06:20:04;11.88;;;6.85;;
12359;SDS011;6244;51.460;7.090;2023-05-19T06:25:02;10.93;;;6.00;;
12359;SDS011;6244;51.460;7.090;2023-05-19T06:29:59;10.82;;;6.15;;
12359;SDS011;6244;51.460;7.090;2023-05-19T06:34:57;12.25;;;6.00;;
12359;SDS011;6244;51.460;7.090;2023-05-19T06:39:54;8.30;;;5.47;;
12359;SDS011;6244;51.460;7.090;2023-05-19T06:44:51;11.30;;;5.07;;
12359;SDS011;6244;51.460;7.090;2023-05-19T06:49:48;12.23;;;5.15;;
12359;SDS011;6244;51.460;7.090;2023-05-19T06:54:50;9.27;;;5.03;;
12359;SDS011;6244;51.460;7.090;2023-05-19T06:59:47;8.65;;;5.28;;
12359;SDS011;6244;51.460;7.090;2023-05-19T07:04:43;7.78;;;5.00;;
12359;SDS011;6244;51.460;7.090;2023-05-19T07:09:40;9.18;;;4.72;;
12359;SDS011;6244;51.460;7.090;2023-05-19T07:14:37;6.60;;;4.13;;
12359;SDS011;6244;51.460;7.090;2023-05-19T07:19:34;8.43;;;4.88;;
12359;SDS011;6244;51.460;7.090;2023-05-19T07:24:30;8.95;;;4.32;;
12359;SDS011;6244;51.460;7.090;2023-05-19T07:29:27;9.32;;;4.32;;
12359;SDS011;6244;51.460;7.090;2023-05-19T07:34:25;7.45;;;4.20;;
12359;SDS011;6244;51.460;7.090;2023-05-19T07:39:21;11.10;;;4.15;;
12359;SDS011;6244;51.460;7.090;2023-05-19T07:44:20;6.88;;;4.13;;
12359;SDS011;6244;51.460;7.090;2023-05-19T07:49:17;9.10;;;4.10;;
12359;SDS011;6244;51.460;7.090;2023-05-19T07:54:15;7.90;;;4.45;;
12359;SDS011;6244;51.460;7.090;2023-05-19T07:59:12;6.53;;;3.97;;
12359;SDS011;6244;51.460;7.090;2023-05-19T08:04:08;8.57;;;3.78;;
12359;SDS011;6244;51.460;7.090;2023-05-19T08:09:06;7.03;;;3.40;;
12359;SDS011;6244;51.460;7.090;2023-05-19T08:14:04;4.68;;;3.40;;
12359;SDS011;6244;51.460;7.090;2023-05-19T08:19:01;6.97;;;3.75;;
12359;SDS011;6244;51.460;7.090;2023-05-19T08:23:59;8.45;;;3.63;;
12359;SDS011;6244;51.460;7.090;2023-05-19T08:28:56;5.25;;;3.70;;
12359;SDS011;6244;51.460;7.090;2023-05-19T08:33:54;5.78;;;3.53;;
12359;SDS011;6244;51.460;7.090;2023-05-19T08:38:50;10.82;;;3.38;;
12359;SDS011;6244;51.460;7.090;2023-05-19T08:43:47;7.60;;;3.10;;
12359;SDS011;6244;51.460;7.090;2023-05-19T08:48:44;4.80;;;2.67;;
12359;SDS011;6244;51.460;7.090;2023-05-19T08:53:45;6.28;;;2.80;;
12359;SDS011;6244;51.460;7.090;2023-05-19T08:58:44;7.30;;;4.00;;
12359;SDS011;6244;51.460;7.090;2023-05-19T09:03:42;6.63;;;3.00;;
12359;SDS011;6244;51.460;7.090;2023-05-19T09:08:39;4.90;;;2.75;;
12359;SDS011;6244;51.460;7.090;2023-05-19T09:13:38;4.45;;;2.30;;
12359;SDS011;6244;51.460;7.090;2023-05-19T09:18:36;4.32;;;2.65;;
12359;SDS011;6244;51.460;7.090;2023-05-19T09:23:33;6.88;;;2.78;;
12359;SDS011;6244;51.460;7.090;2023-05-19T09:28:30;7.70;;;2.80;;
12359;SDS011;6244;51.460;7.090;2023-05-19T09:33:31;7.43;;;3.08;;
12359;SDS011;6244;51.460;7.090;2023-05-19T09:38:28;3.83;;;2.60;;
12359;SDS011;6244;51.460;7.090;2023-05-19T09:43:25;5.32;;;2.67;;
12359;SDS011;6244;51.460;7.090;2023-05-19T09:48:24;7.07;;;2.83;;
12359;SDS011;6244;51.460;7.090;2023-05-19T09:53:23;4.45;;;2.55;;
12359;SDS011;6244;51.460;7.090;2023-05-19T09:58:20;6.18;;;2.70;;
12359;SDS011;6244;51.460;7.090;2023-05-19T10:03:18;4.82;;;2.58;;
12359;SDS011;6244;51.460;7.090;2023-05-19T10:08:16;4.40;;;2.30;;
12359;SDS011;6244;51.460;7.090;2023-05-19T10:13:14;5.10;;;2.40;;
12359;SDS011;6244;51.460;7.090;2023-05-19T10:18:11;8.80;;;2.95;;
12359;SDS011;6244;51.460;7.090;2023-05-19T10:23:10;4.22;;;2.63;;
12359;SDS011;6244;51.460;7.090;2023-05-19T10:28:07;6.43;;;2.75;;
12359;SDS011;6244;51.460;7.090;2023-05-19T10:33:14;4.47;;;2.80;;
12359;SDS011;6244;51.460;7.090;2023-05-19T10:38:15;5.45;;;2.47;;
12359;SDS011;6244;51.460;7.090;2023-05-19T10:43:24;6.47;;;3.03;;
12359;SDS011;6244;51.460;7.090;2023-05-19T10:48:39;5.80;;;2.40;;
12359;SDS011;6244;51.460;7.090;2023-05-19T10:58:48;7.57;;;2.85;;
12359;SDS011;6244;51.460;7.090;2023-05-19T11:03:48;4.30;;;2.58;;
12359;SDS011;6244;51.460;7.090;2023-05-19T11:08:46;5.72;;;2.92;;
12359;SDS011;6244;51.460;7.090;2023-05-19T11:13:49;7.45;;;3.03;;
12359;SDS011;6244;51.460;7.090;2023-05-19T11:18:48;5.72;;;2.50;;
12359;SDS011;6244;51.460;7.090;2023-05-19T11:23:45;4.05;;;2.58;;
12359;SDS011;6244;51.460;7.090;2023-05-19T11:28:41;7.10;;;3.40;;
12359;SDS011;6244;51.460;7.090;2023-05-19T11:33:38;6.00;;;2.55;;
12359;SDS011;6244;51.460;7.090;2023-05-19T11:38:36;4.75;;;2.80;;
12359;SDS011;6244;51.460;7.090;2023-05-19T11:43:33;5.20;;;2.90;;
12359;SDS011;6244;51.460;7.090;2023-05-19T11:48:29;6.43;;;2.80;;
12359;SDS011;6244;51.460;7.090;2023-05-19T11:53:26;5.82;;;2.67;;
12359;SDS011;6244;51.460;7.090;2023-05-19T11:58:27;4.10;;;2.47;;
12359;SDS011;6244;51.460;7.090;2023-05-19T12:03:23;4.10;;;2.47;;
12359;SDS011;6244;51.460;7.090;2023-05-19T12:08:22;5.07;;;2.90;;
12359;SDS011;6244;51.460;7.090;2023-05-19T12:13:19;5.68;;;3.35;;
12359;SDS011;6244;51.460;7.090;2023-05-19T12:18:18;6.10;;;3.22;;
12359;SDS011;6244;51.460;7.090;2023-05-19T12:23:15;6.38;;;3.17;;
12359;SDS011;6244;51.460;7.090;2023-05-19T12:28:11;6.47;;;3.17;;
12359;SDS011;6244;51.460;7.090;2023-05-19T12:33:09;8.77;;;2.88;;
12359;SDS011;6244;51.460;7.090;2023-05-19T12:38:07;6.88;;;3.30;;
12359;SDS011;6244;51.460;7.090;2023-05-19T12:43:03;5.65;;;3.15;;
12359;SDS011;6244;51.460;7.090;2023-05-19T12:48:01;4.95;;;3.00;;
12359;SDS011;6244;51.460;7.090;2023-05-19T12:52:58;6.60;;;3.13;;
12359;SDS011;6244;51.460;7.090;2023-05-19T12:57:56;7.55;;;3.20;;
12359;SDS011;6244;51.460;7.090;2023-05-19T13:02:54;7.18;;;3.08;;
12359;SDS011;6244;51.460;7.090;2023-05-19T13:07:52;4.10;;;2.90;;
12359;SDS011;6244;51.460;7.090;2023-05-19T13:12:53;6.90;;;3.10;;
12359;SDS011;6244;51.460;7.090;2023-05-19T13:17:52;5.97;;;2.70;;
12359;SDS011;6244;51.460;7.090;2023-05-19T13:22:50;4.78;;;2.60;;
12359;SDS011;6244;51.460;7.090;2023-05-19T13:27:47;5.20;;;3.10;;
12359;SDS011;6244;51.460;7.090;2023-05-19T13:32:45;7.30;;;2.95;;
12359;SDS011;6244;51.460;7.090;2023-05-19T13:37:43;3.92;;;2.55;;
12359;SDS011;6244;51.460;7.090;2023-05-19T13:42:40;5.60;;;2.88;;
12359;SDS011;6244;51.460;7.090;2023-05-19T13:47:36;4.45;;;2.75;;
12359;SDS011;6244;51.460;7.090;2023-05-19T13:52:33;4.63;;;2.90;;
12359;SDS011;6244;51.460;7.090;2023-05-19T13:57:31;6.07;;;3.10;;
12359;SDS011;6244;51.460;7.090;2023-05-19T14:02:28;5.15;;;2.60;;
12359;SDS011;6244;51.460;7.090;2023-05-19T14:07:24;4.28;;;2.58;;
12359;SDS011;6244;51.460;7.090;2023-05-19T14:12:21;4.03;;;2.67;;
12359;SDS011;6244;51.460;7.090;2023-05-19T14:17:19;5.13;;;2.72;;
12359;SDS011;6244;51.460;7.090;2023-05-19T14:22:15;4.05;;;2.60;;
12359;SDS011;6244;51.460;7.090;2023-05-19T14:27:13;5.90;;;2.70;;
12359;SDS011;6244;51.460;7.090;2023-05-19T14:32:10;4.28;;;2.33;;
12359;SDS011;6244;51.460;7.090;2023-05-19T14:37:07;6.20;;;2.85;;
12359;SDS011;6244;51.460;7.090;2023-05-19T14:42:04;5.50;;;3.30;;
12359;SDS011;6244;51.460;7.090;2023-05-19T14:47:01;6.05;;;3.38;;
12359;SDS011;6244;51.460;7.090;2023-05-19T14:51:58;6.57;;;3.55;;
12359;SDS011;6244;51.460;7.090;2023-05-19T14:56:55;5.43;;;3.42;;
12359;SDS011;6244;51.460;7.090;2023-05-19T15:01:52;5.10;;;3.17;;
12359;SDS011;6244;51.460;7.090;2023-05-19T15:06:49;7.63;;;3.45;;
12359;SDS011;6244;51.460;7.090;2023-05-19T15:11:45;3.72;;;2.78;;
12359;SDS011;6244;51.460;7.090;2023-05-19T15:16:43;5.32;;;2.88;;
12359;SDS011;6244;51.460;7.090;2023-05-19T15:21:40;6.10;;;3.25;;
12359;SDS011;6244;51.460;7.090;2023-05-19T15:26:38;4.93;;;3.00;;
12359;SDS011;6244;51.460;7.090;2023-05-19T15:31:34;3.85;;;2.60;;
12359;SDS011;6244;51.460;7.090;2023-05-19T15:36:32;4.53;;;2.60;;
12359;SDS011;6244;51.460;7.090;2023-05-19T15:41:29;4.07;;;2.95;;
12359;SDS011;6244;51.460;7.090;2023-05-19T15:46:26;5.07;;;3.00;;
12359;SDS011;6244;51.460;7.090;2023-05-19T15:51:22;6.00;;;3.50;;
12359;SDS011;6244;51.460;7.090;2023-05-19T15:56:20;4.13;;;3.03;;
12359;SDS011;6244;51.460;7.090;2023-05-19T16:01:17;5.72;;;3.00;;
12359;SDS011;6244;51.460;7.090;2023-05-19T16:06:14;4.18;;;3.10;;
12359;SDS011;6244;51.460;7.090;2023-05-19T16:11:11;4.88;;;2.92;;
12359;SDS011;6244;51.460;7.090;2023-05-19T16:16:09;5.28;;;2.80;;
12359;SDS011;6244;51.460;7.090;2023-05-19T16:21:06;6.35;;;3.20;;
12359;SDS011;6244;51.460;7.090;2023-05-19T16:26:02;3.88;;;2.50;;
12359;SDS011;6244;51.460;7.090;2023-05-19T16:30:59;9.35;;;4.93;;
12359;SDS011;6244;51.460;7.090;2023-05-19T16:35:57;6.18;;;3.42;;
12359;SDS011;6244;51.460;7.090;2023-05-19T16:40:54;8.02;;;4.18;;
12359;SDS011;6244;51.460;7.090;2023-05-19T16:45:51;6.05;;;3.30;;
12359;SDS011;6244;51.460;7.090;2023-05-19T16:50:47;5.22;;;3.13;;
12359;SDS011;6244;51.460;7.090;2023-05-19T16:55:45;7.47;;;3.50;;
12359;SDS011;6244;51.460;7.090;2023-05-19T17:00:42;3.83;;;2.53;;
12359;SDS011;6244;51.460;7.090;2023-05-19T17:05:39;5.70;;;2.70;;
12359;SDS011;6244;51.460;7.090;2023-05-19T17:10:37;4.53;;;3.20;;
12359;SDS011;6244;51.460;7.090;2023-05-19T17:15:35;5.35;;;2.90;;
12359;SDS011;6244;51.460;7.090;2023-05-19T17:20:31;6.97;;;3.50;;
12359;SDS011;6244;51.460;7.090;2023-05-19T17:25:28;4.68;;;2.50;;
12359;SDS011;6244;51.460;7.090;2023-05-19T17:30:27;4.05;;;2.42;;
12359;SDS011;6244;51.460;7.090;2023-05-19T17:35:25;4.10;;;2.83;;
12359;SDS011;6244;51.460;7.090;2023-05-19T17:40:21;3.47;;;2.85;;
12359;SDS011;6244;51.460;7.090;2023-05-19T17:45:18;7.05;;;2.70;;
12359;SDS011;6244;51.460;7.090;2023-05-19T17:50:15;4.25;;;2.90;;
12359;SDS011;6244;51.460;7.090;2023-05-19T17:55:13;4.78;;;2.85;;
12359;SDS011;6244;51.460;7.090;2023-05-19T18:00:10;4.22;;;2.67;;
12359;SDS011;6244;51.460;7.090;2023-05-19T18:05:08;4.68;;;3.10;;
12359;SDS011;6244;51.460;7.090;2023-05-19T18:10:06;3.72;;;2.72;;
12359;SDS011;6244;51.460;7.090;2023-05-19T18:15:06;4.22;;;3.00;;
12359;SDS011;6244;51.460;7.090;2023-05-19T18:20:03;5.38;;;3.30;;
12359;SDS011;6244;51.460;7.090;2023-05-19T18:25:00;5.18;;;2.90;;
12359;SDS011;6244;51.460;7.090;2023-05-19T18:29:57;7.35;;;3.30;;
12359;SDS011;6244;51.460;7.090;2023-05-19T18:34:55;6.63;;;5.05;;
12359;SDS011;6244;51.460;7.090;2023-05-19T18:39:52;8.38;;;6.40;;
12359;SDS011;6244;51.460;7.090;2023-05-19T18:44:48;4.78;;;3.63;;
12359;SDS011;6244;51.460;7.090;2023-05-19T18:49:45;5.00;;;3.45;;
12359;SDS011;6244;51.460;7.090;2023-05-19T18:54:42;5.63;;;2.70;;
12359;SDS011;6244;51.460;7.090;2023-05-19T18:59:41;4.63;;;2.55;;
12359;SDS011;6244;51.460;7.090;2023-05-19T19:04:37;6.50;;;2.80;;
12359;SDS011;6244;51.460;7.090;2023-05-19T19:09:34;5.28;;;2.60;;
12359;SDS011;6244;51.460;7.090;2023-05-19T19:14:32;5.20;;;2.60;;
12359;SDS011;6244;51.460;7.090;2023-05-19T19:19:28;3.22;;;2.60;;
12359;SDS011;6244;51.460;7.090;2023-05-19T19:24:25;3.63;;;2.80;;
12359;SDS011;6244;51.460;7.090;2023-05-19T19:29:22;3.90;;;2.63;;
12359;SDS011;6244;51.460;7.090;2023-05-19T19:34:20;4.18;;;3.00;;
12359;SDS011;6244;51.460;7.090;2023-05-19T19:39:16;3.63;;;3.00;;
12359;SDS011;6244;51.460;7.090;2023-05-19T19:44:13;4.72;;;2.97;;
12359;SDS011;6244;51.460;7.090;2023-05-19T19:49:09;5.72;;;3.08;;
12359;SDS011;6244;51.460;7.090;2023-05-19T19:54:07;4.68;;;2.78;;
12359;SDS011;6244;51.460;7.090;2023-05-19T19:59:04;5.30;;;3.45;;
12359;SDS011;6244;51.460;7.090;2023-05-19T20:04:00;5.50;;;2.97;;
12359;SDS011;6244;51.460;7.090;2023-05-19T20:08:57;6.68;;;2.83;;
12359;SDS011;6244;51.460;7.090;2023-05-19T20:13:55;3.95;;;2.90;;
12359;SDS011;6244;51.460;7.090;2023-05-19T20:18:52;4.82;;;3.33;;
12359;SDS011;6244;51.460;7.090;2023-05-19T20:23:48;5.97;;;3.20;;
12359;SDS011;6244;51.460;7.090;2023-05-19T20:28:45;4.00;;;3.08;;
12359;SDS011;6244;51.460;7.090;2023-05-19T20:33:43;4.82;;;3.28;;
12359;SDS011;6244;51.460;7.090;2023-05-19T20:38:39;5.00;;;3.35;;
12359;SDS011;6244;51.460;7.090;2023-05-19T20:43:36;6.55;;;3.42;;
12359;SDS011;6244;51.460;7.090;2023-05-19T20:48:32;5.78;;;3.20;;
12359;SDS011;6244;51.460;7.090;2023-05-19T20:53:30;4.82;;;3.25;;
12359;SDS011;6244;51.460;7.090;2023-05-19T20:58:28;6.00;;;3.28;;
12359;SDS011;6244;51.460;7.090;2023-05-19T21:03:25;5.15;;;3.70;;
12359;SDS011;6244;51.460;7.090;2023-05-19T21:08:22;5.13;;;3.05;;
12359;SDS011;6244;51.460;7.090;2023-05-19T21:13:20;4.28;;;3.28;;
12359;SDS011;6244;51.460;7.090;2023-05-19T21:18:17;9.77;;;3.45;;
12359;SDS011;6244;51.460;7.090;2023-05-19T21:23:13;5.35;;;3.30;;
12359;SDS011;6244;51.460;7.090;2023-05-19T21:28:10;4.60;;;3.47;;
12359;SDS011;6244;51.460;7.090;2023-05-19T21:33:08;7.18;;;4.35;;
12359;SDS011;6244;51.460;7.090;2023-05-19T21:38:05;6.45;;;3.85;;
12359;SDS011;6244;51.460;7.090;2023-05-19T21:43:02;6.32;;;3.67;;
12359;SDS011;6244;51.460;7.090;2023-05-19T21:47:59;6.38;;;3.80;;
12359;SDS011;6244;51.460;7.090;2023-05-19T21:52:57;5.43;;;3.55;;
12359;SDS011;6244;51.460;7.090;2023-05-19T21:57:54;7.97;;;4.43;;
12359;SDS011;6244;51.460;7.090;2023-05-19T22:02:50;9.18;;;5.70;;
12359;SDS011;6244;51.460;7.090;2023-05-19T22:07:47;8.50;;;5.13;;
12359;SDS011;6244;51.460;7.090;2023-05-19T22:12:45;6.18;;;4.22;;
12359;SDS011;6244;51.460;7.090;2023-05-19T22:17:41;5.00;;;3.80;;
12359;SDS011;6244;51.460;7.090;2023-05-19T22:22:38;6.53;;;4.00;;
12359;SDS011;6244;51.460;7.090;2023-05-19T22:32:35;9.40;;;4.50;;
12359;SDS011;6244;51.460;7.090;2023-05-19T22:37:31;5.47;;;3.75;;
12359;SDS011;6244;51.460;7.090;2023-05-19T22:42:28;6.25;;;3.50;;
12359;SDS011;6244;51.460;7.090;2023-05-19T22:47:24;7.45;;;3.67;;
12359;SDS011;6244;51.460;7.090;2023-05-19T22:52:22;4.72;;;3.55;;
12359;SDS011;6244;51.460;7.090;2023-05-19T22:57:19;5.57;;;3.90;;
12359;SDS011;6244;51.460;7.090;2023-05-19T23:02:16;5.55;;;3.70;;
12359;SDS011;6244;51.460;7.090;2023-05-19T23:07:13;7.88;;;5.18;;
12359;SDS011;6244;51.460;7.090;2023-05-19T23:12:11;10.00;;;5.38;;
12359;SDS011;6244;51.460;7.090;2023-05-19T23:17:08;6.55;;;4.32;;
12359;SDS011;6244;51.460;7.090;2023-05-19T23:22:04;6.10;;;4.20;;
12359;SDS011;6244;51.460;7.090;2023-05-19T23:27:01;4.78;;;3.88;;
12359;SDS011;6244;51.460;7.090;2023-05-19T23:31:59;5.60;;;3.97;;
12359;SDS011;6244;51.460;7.090;2023-05-19T23:36:55;9.25;;;4.10;;
12359;SDS011;6244;51.460;7.090;2023-05-19T23:41:51;5.55;;;4.20;;
12359;SDS011;6244;51.460;7.090;2023-05-19T23:46:48;5.72;;;4.18;;
12359;SDS011;6244;51.460;7.090;2023-05-19T23:51:46;6.45;;;4.15;;
12359;SDS011;6244;51.460;7.090;2023-05-19T23:56:42;7.45;;;4.03;;
